TUX weather

Tumbler Ridge Airport
Tumbler Ridge, British Columbia, Canada

Public forecast

Using degrees Celsius for public forecast. Weather courtesy of forecast.io.

METAR (pilot weather report)

Closest report is Chetwynd Airport, 46.2 nm (85.6 km) NNW. Retrieved 2019/08/21 00:00 UTC (35 minutes ago):

CYCQ 210000Z 04003KT 010V070 35SM SCT150 BKN180 BKN200 17/14 A2985 RMK AC3AS2CS2 VIRGA N+E DIST FU VLY W SLP123 DENSITY ALT 2800FT

TAF (pilot weather forecast)

Closest forecast is Dawson Creek Airport, 50.1 nm (92.8 km) NNE. Retrieved 2019/08/21 01:00 UTC (0 seconds ago):

TAF CYDQ 210038Z 2101/2105 12006KT P6SM SCT040 BKN150 RMK FCST BASED ON AUTO OBS. NXT FCST WILL BE ISSUED AT 211245Z